Time;durP1;ratioP1;P1;durP2;ratioP2;P2;SDS_P1;SDS_P2;PMS_P1;PMS_P2;Temp;Humidity;BMP_temperature;BMP_pressure;BME280_temperature;BME280_humidity;BME280_pressure;Samples;Min_cycle;Max_cycle;Signal;HPM_P1;HPM_P2
2023/11/01 00:01:37;;;;;;;0.30;0.30;;;8.30;99.90;;;;;;4405060;32;20098;-62
2023/11/01 00:04:03;;;;;;;0.30;0.30;;;8.30;99.90;;;;;;4405681;32;20069;-62
2023/11/01 00:06:28;;;;;;;0.35;0.35;;;8.30;99.90;;;;;;4406885;32;20073;-61
2023/11/01 00:08:56;;;;;;;0.20;0.20;;;8.20;99.90;;;;;;4404892;32;20102;-62
2023/11/01 00:11:21;;;;;;;0.28;0.28;;;8.30;99.90;;;;;;4404415;32;20058;-63
2023/11/01 00:13:47;;;;;;;0.20;0.20;;;8.40;99.90;;;;;;4404672;32;20467;-61
2023/11/01 00:16:12;;;;;;;0.30;0.30;;;8.40;99.90;;;;;;4401593;32;20073;-62
2023/11/01 00:18:38;;;;;;;0.30;0.30;;;8.30;99.90;;;;;;4400980;32;20399;-62
2023/11/01 00:21:03;;;;;;;0.20;0.20;;;8.40;99.90;;;;;;4406690;32;20058;-61
2023/11/01 00:23:29;;;;;;;0.30;0.30;;;8.50;99.90;;;;;;4404882;32;20066;-60
2023/11/01 00:25:54;;;;;;;0.20;0.20;;;8.50;99.90;;;;;;4391006;32;20082;-61
2023/11/01 00:28:20;;;;;;;0.30;0.30;;;8.50;99.90;;;;;;4406562;32;20090;-61
2023/11/01 00:30:45;;;;;;;0.30;0.30;;;8.50;99.90;;;;;;4408406;32;20078;-62
2023/11/01 00:33:11;;;;;;;10.23;1.85;;;8.40;99.90;;;;;;4407244;32;20537;-60
2023/11/01 00:35:36;;;;;;;0.25;0.25;;;8.50;99.90;;;;;;4405265;32;20091;-61
2023/11/01 00:38:05;;;;;;;0.30;0.30;;;8.40;99.90;;;;;;4398639;32;20105;-62
2023/11/01 00:40:31;;;;;;;7.18;2.55;;;8.50;99.90;;;;;;4385498;32;20879;-61
2023/11/01 00:42:56;;;;;;;0.37;0.37;;;8.50;99.90;;;;;;4406280;32;20066;-61
2023/11/01 00:45:22;;;;;;;0.28;0.28;;;8.50;99.90;;;;;;4405805;32;20081;-61
2023/11/01 00:47:47;;;;;;;0.30;0.30;;;8.50;99.90;;;;;;4403281;32;20074;-62
2023/11/01 00:50:13;;;;;;;0.20;0.20;;;8.60;99.90;;;;;;4404089;32;20598;-61
2023/11/01 00:52:38;;;;;;;0.40;0.40;;;8.60;99.90;;;;;;4404259;32;20062;-61
2023/11/01 00:55:04;;;;;;;0.30;0.30;;;8.50;99.90;;;;;;4405182;32;20068;-61
2023/11/01 00:57:32;;;;;;;0.20;0.20;;;8.50;99.90;;;;;;4395216;32;20161;-62
2023/11/01 00:59:58;;;;;;;0.20;0.20;;;8.50;99.90;;;;;;4403749;32;20573;-61
2023/11/01 01:02:23;;;;;;;0.30;0.30;;;8.50;99.90;;;;;;4403532;32;20120;-61
2023/11/01 01:04:49;;;;;;;0.43;0.43;;;8.60;99.90;;;;;;4406712;32;20074;-61
2023/11/01 01:07:14;;;;;;;0.37;0.37;;;8.40;99.90;;;;;;4402944;32;20078;-61
2023/11/01 01:09:40;;;;;;;0.30;0.30;;;8.40;99.90;;;;;;4403690;32;21313;-59
2023/11/01 01:12:06;;;;;;;0.20;0.20;;;8.40;99.90;;;;;;4406779;32;20074;-61
2023/11/01 01:14:31;;;;;;;0.25;0.25;;;8.50;99.90;;;;;;4403331;32;20085;-61
2023/11/01 01:16:57;;;;;;;0.20;0.20;;;8.50;99.90;;;;;;4401107;32;20518;-61
2023/11/01 01:19:22;;;;;;;0.65;0.65;;;8.60;99.90;;;;;;4405199;32;20062;-61
2023/11/01 01:21:48;;;;;;;0.20;0.20;;;8.60;99.90;;;;;;4403628;32;20121;-62
2023/11/01 01:24:14;;;;;;;0.20;0.20;;;8.50;99.90;;;;;;4403934;32;20065;-62
2023/11/01 01:26:40;;;;;;;0.20;0.20;;;8.50;99.90;;;;;;4402870;32;20082;-62
2023/11/01 01:29:06;;;;;;;0.52;0.52;;;8.50;99.90;;;;;;4405910;32;20062;-60
2023/11/01 01:31:33;;;;;;;0.20;0.20;;;8.40;99.90;;;;;;4404737;32;20061;-61
2023/11/01 01:33:58;;;;;;;0.30;0.30;;;8.40;99.90;;;;;;4403573;32;20091;-62
2023/11/01 01:36:24;;;;;;;0.30;0.30;;;8.30;99.90;;;;;;4401264;32;20090;-60
2023/11/01 01:38:49;;;;;;;0.20;0.20;;;8.30;99.90;;;;;;4398878;32;20070;-61
2023/11/01 01:41:15;;;;;;;0.40;0.40;;;8.30;99.90;;;;;;4404340;32;20061;-62
2023/11/01 01:43:40;;;;;;;0.30;0.30;;;8.30;99.90;;;;;;4405827;32;20086;-61
2023/11/01 01:46:09;;;;;;;0.20;0.20;;;8.30;99.90;;;;;;4402373;32;20522;-61
2023/11/01 01:48:36;;;;;;;0.35;0.35;;;8.20;99.90;;;;;;4404196;32;20099;-61
2023/11/01 01:51:03;;;;;;;2.30;0.57;;;8.10;99.90;;;;;;4402518;32;20114;-61
2023/11/01 01:53:30;;;;;;;0.20;0.20;;;8.30;99.90;;;;;;4403428;32;20486;-61
2023/11/01 01:55:57;;;;;;;1.65;0.55;;;8.30;99.90;;;;;;4405127;32;20078;-61
2023/11/01 01:58:24;;;;;;;0.30;0.30;;;8.30;99.90;;;;;;4397808;32;20129;-61
2023/11/01 02:00:51;;;;;;;0.20;0.20;;;8.30;99.90;;;;;;4404200;32;20553;-61
2023/11/01 02:03:16;;;;;;;4.43;0.98;;;8.20;99.90;;;;;;4405902;32;20120;-61
2023/11/01 02:05:42;;;;;;;0.30;0.30;;;8.20;99.90;;;;;;4403922;32;20513;-62
2023/11/01 02:08:08;;;;;;;0.37;0.37;;;8.10;99.90;;;;;;4402320;32;20062;-62
2023/11/01 02:10:33;;;;;;;0.28;0.28;;;8.00;99.90;;;;;;4403076;32;20554;-61
2023/11/01 02:13:09;;;;;;;0.20;0.20;;;8.10;99.90;;;;;;4403654;32;20416;-61
2023/11/01 02:15:34;;;;;;;0.30;0.30;;;8.00;99.90;;;;;;4400356;32;20074;-61
2023/11/01 02:18:00;;;;;;;0.20;0.20;;;7.80;99.90;;;;;;4398079;32;20513;-61
2023/11/01 02:20:27;;;;;;;0.22;0.22;;;7.70;99.90;;;;;;4402968;32;20061;-62
2023/11/01 02:22:55;;;;;;;0.93;0.50;;;7.60;99.90;;;;;;4404983;32;20070;-62
2023/11/01 02:25:21;;;;;;;1.20;0.90;;;7.60;99.90;;;;;;4402175;32;20078;-60
2023/11/01 02:27:47;;;;;;;0.30;0.30;;;7.70;99.90;;;;;;4403005;32;20078;-62
2023/11/01 02:30:16;;;;;;;0.20;0.20;;;7.70;99.90;;;;;;4401182;32;20082;-62
2023/11/01 02:32:47;;;;;;;0.20;0.20;;;7.70;99.90;;;;;;4403229;32;20784;-61
2023/11/01 02:35:20;;;;;;;0.20;0.20;;;7.70;99.90;;;;;;4390349;32;20482;-61
2023/11/01 02:37:48;;;;;;;0.40;0.40;;;7.60;99.90;;;;;;4399104;32;20498;-60
2023/11/01 02:40:14;;;;;;;0.20;0.20;;;7.70;99.90;;;;;;4403399;32;20098;-61
2023/11/01 02:42:48;;;;;;;1.00;0.55;;;7.60;99.90;;;;;;4402716;32;20699;-60
2023/11/01 02:45:14;;;;;;;0.57;0.57;;;7.60;99.90;;;;;;4398513;32;20617;-61
2023/11/01 02:47:41;;;;;;;0.30;0.30;;;7.60;99.90;;;;;;4400937;32;20091;-62
2023/11/01 02:50:09;;;;;;;0.30;0.30;;;7.60;99.90;;;;;;4399671;32;20140;-62
2023/11/01 02:52:35;;;;;;;0.20;0.20;;;7.70;99.90;;;;;;4403955;32;20061;-61
2023/11/01 02:55:05;;;;;;;0.20;0.20;;;7.70;99.90;;;;;;4403590;32;20739;-61
2023/11/01 02:57:32;;;;;;;0.25;0.25;;;7.70;99.90;;;;;;4399798;32;20081;-62
2023/11/01 02:59:58;;;;;;;0.20;0.20;;;7.70;99.90;;;;;;4403438;32;20779;-62
2023/11/01 03:02:23;;;;;;;0.40;0.40;;;7.70;99.90;;;;;;4404020;32;20124;-60
2023/11/01 03:04:49;;;;;;;0.20;0.20;;;7.80;99.90;;;;;;4405803;32;20094;-61
2023/11/01 03:07:15;;;;;;;0.20;0.20;;;7.70;99.90;;;;;;4406714;32;20103;-62
2023/11/01 03:09:41;;;;;;;0.20;0.20;;;7.70;99.90;;;;;;4403543;32;20073;-61
2023/11/01 03:12:07;;;;;;;25.73;0.82;;;7.90;99.90;;;;;;4405079;32;20193;-62
2023/11/01 03:14:32;;;;;;;0.37;0.37;;;7.80;99.90;;;;;;4407429;32;20505;-61
2023/11/01 03:16:58;;;;;;;6.45;0.62;;;7.90;99.90;;;;;;4403467;32;20077;-62
2023/11/01 03:19:23;;;;;;;5.68;2.40;;;8.00;99.90;;;;;;4405566;32;20436;-62
2023/11/01 03:21:49;;;;;;;0.30;0.30;;;8.10;99.90;;;;;;4404090;32;20078;-61
2023/11/01 03:24:14;;;;;;;7.68;2.12;;;8.10;99.90;;;;;;4405783;32;20065;-62
2023/11/01 03:26:40;;;;;;;0.30;0.30;;;8.00;99.90;;;;;;4405372;32;20420;-60
2023/11/01 03:29:06;;;;;;;0.30;0.30;;;7.90;99.90;;;;;;4405369;32;20137;-61
2023/11/01 03:31:31;;;;;;;0.20;0.20;;;8.00;99.90;;;;;;4405050;32;20061;-61
2023/11/01 03:33:57;;;;;;;0.25;0.25;;;7.90;99.90;;;;;;4399906;32;20576;-61
2023/11/01 03:36:22;;;;;;;5.07;1.15;;;7.90;99.90;;;;;;4400163;32;20541;-62
2023/11/01 03:38:48;;;;;;;0.47;0.35;;;7.80;99.90;;;;;;4402476;32;20459;-62
2023/11/01 03:41:13;;;;;;;0.30;0.30;;;7.90;99.90;;;;;;4404569;32;20408;-61
2023/11/01 03:43:39;;;;;;;0.60;0.60;;;7.90;99.90;;;;;;4406262;32;20088;-62
2023/11/01 03:46:05;;;;;;;0.32;0.32;;;8.00;99.90;;;;;;4408095;32;20053;-60
2023/11/01 03:48:30;;;;;;;0.30;0.30;;;8.10;99.90;;;;;;4406504;32;20094;-60
2023/11/01 03:50:56;;;;;;;0.30;0.30;;;8.00;99.90;;;;;;4406945;32;20065;-62
2023/11/01 03:53:21;;;;;;;0.30;0.30;;;8.00;99.90;;;;;;4403615;32;20086;-61
2023/11/01 03:55:47;;;;;;;3.92;0.62;;;8.00;99.90;;;;;;4403206;32;20065;-61
2023/11/01 03:58:12;;;;;;;0.30;0.30;;;7.90;99.90;;;;;;4395561;32;20066;-60
2023/11/01 04:00:37;;;;;;;0.40;0.40;;;8.00;99.90;;;;;;4405681;32;20114;-62
2023/11/01 04:03:03;;;;;;;1.23;0.80;;;7.90;99.90;;;;;;4405364;32;20078;-61
2023/11/01 04:05:28;;;;;;;0.32;0.32;;;7.90;99.90;;;;;;4405394;32;20086;-61
2023/11/01 04:07:54;;;;;;;0.30;0.30;;;7.90;99.90;;;;;;4403105;32;20097;-60
2023/11/01 04:10:19;;;;;;;0.30;0.30;;;8.00;99.90;;;;;;4405776;32;20115;-62
2023/11/01 04:12:45;;;;;;;0.40;0.40;;;8.00;99.90;;;;;;4405483;32;20495;-61
2023/11/01 04:15:12;;;;;;;0.30;0.30;;;8.00;99.90;;;;;;4403875;32;20062;-61
2023/11/01 04:17:38;;;;;;;0.20;0.20;;;8.00;99.90;;;;;;4399888;32;20545;-61
2023/11/01 04:20:07;;;;;;;0.30;0.30;;;7.90;99.90;;;;;;4401375;32;20098;-61
2023/11/01 04:22:34;;;;;;;0.43;0.43;;;8.00;99.90;;;;;;4404341;32;20081;-61
2023/11/01 04:25:00;;;;;;;0.20;0.20;;;8.00;99.90;;;;;;4406115;32;20074;-61
2023/11/01 04:27:25;;;;;;;0.20;0.20;;;7.90;99.90;;;;;;4402854;32;20062;-61
2023/11/01 04:29:54;;;;;;;0.30;0.30;;;7.90;99.90;;;;;;4402266;32;20839;-61
2023/11/01 04:32:21;;;;;;;0.30;0.30;;;7.90;99.90;;;;;;4404837;32;20077;-60
2023/11/01 04:34:49;;;;;;;0.20;0.20;;;7.90;99.90;;;;;;4406353;32;20067;-60
2023/11/01 04:37:16;;;;;;;0.30;0.30;;;7.90;99.90;;;;;;4400480;32;20082;-61
2023/11/01 04:39:46;;;;;;;1.87;0.60;;;8.00;99.90;;;;;;4401486;32;20502;-61
2023/11/01 04:42:16;;;;;;;0.43;0.37;;;8.00;99.90;;;;;;4405390;32;20572;-61
2023/11/01 04:44:44;;;;;;;0.40;0.40;;;7.90;99.90;;;;;;4404977;32;21180;-61
2023/11/01 04:47:09;;;;;;;0.22;0.22;;;7.90;99.90;;;;;;4402130;32;20070;-61
2023/11/01 04:49:35;;;;;;;0.20;0.20;;;7.90;99.90;;;;;;4405723;32;20102;-61
2023/11/01 04:52:01;;;;;;;0.20;0.20;;;7.80;99.90;;;;;;4398843;32;20069;-62
2023/11/01 04:54:26;;;;;;;0.20;0.20;;;7.80;99.90;;;;;;4405611;32;20211;-61
2023/11/01 04:56:52;;;;;;;0.28;0.28;;;7.90;99.90;;;;;;4399688;32;20106;-61
2023/11/01 04:59:18;;;;;;;0.20;0.20;;;7.80;99.90;;;;;;4402517;32;20125;-61
2023/11/01 05:04:11;;;;;;;0.20;0.20;;;7.80;99.90;;;;;;4404798;32;20071;-61
2023/11/01 05:06:36;;;;;;;0.20;0.20;;;7.90;99.90;;;;;;4406314;32;20081;-61
2023/11/01 05:09:04;;;;;;;0.25;0.25;;;7.90;99.90;;;;;;4397675;32;20093;-62
2023/11/01 05:11:30;;;;;;;0.22;0.22;;;8.00;99.90;;;;;;4404773;32;20117;-62
2023/11/01 05:13:55;;;;;;;0.20;0.20;;;8.00;99.90;;;;;;4405740;32;20070;-62
2023/11/01 05:16:21;;;;;;;0.20;0.20;;;8.00;99.90;;;;;;4404793;32;20097;-62
2023/11/01 05:18:46;;;;;;;0.30;0.30;;;8.10;99.90;;;;;;4384253;32;20079;-62
2023/11/01 05:21:12;;;;;;;0.20;0.20;;;8.10;99.90;;;;;;4408196;32;20073;-62
2023/11/01 05:23:37;;;;;;;0.20;0.20;;;8.10;99.90;;;;;;4404621;32;20217;-62
2023/11/01 05:26:03;;;;;;;0.68;0.30;;;8.10;99.90;;;;;;4403235;32;20136;-61
2023/11/01 05:28:28;;;;;;;0.43;0.37;;;8.10;99.90;;;;;;4401212;32;20505;-60
2023/11/01 05:30:54;;;;;;;0.80;0.80;;;8.10;99.90;;;;;;4404406;32;20109;-61
2023/11/01 05:33:19;;;;;;;0.20;0.20;;;8.10;99.90;;;;;;4404907;32;20560;-62
2023/11/01 05:35:45;;;;;;;0.30;0.30;;;8.10;99.90;;;;;;4388534;32;20083;-61
2023/11/01 05:38:12;;;;;;;0.55;0.55;;;8.10;99.90;;;;;;4397277;32;20548;-61
2023/11/01 05:40:37;;;;;;;0.30;0.30;;;8.20;99.90;;;;;;4406468;32;20089;-61
2023/11/01 05:43:05;;;;;;;1.27;0.68;;;8.20;99.90;;;;;;4402630;32;20463;-62
2023/11/01 05:45:30;;;;;;;0.30;0.30;;;8.20;99.90;;;;;;4404456;32;20082;-62
2023/11/01 05:47:56;;;;;;;0.25;0.25;;;8.30;99.90;;;;;;4404708;32;20061;-62
2023/11/01 05:50:23;;;;;;;0.37;0.37;;;8.30;99.90;;;;;;4403643;32;20077;-62
2023/11/01 05:52:50;;;;;;;0.25;0.25;;;8.30;99.90;;;;;;4407150;32;20067;-62
2023/11/01 05:55:16;;;;;;;0.25;0.25;;;8.30;99.90;;;;;;4403957;32;20078;-60
2023/11/01 05:57:41;;;;;;;0.52;0.52;;;8.30;99.90;;;;;;4397150;32;20397;-62
2023/11/01 06:02:37;;;;;;;0.40;0.40;;;8.30;99.90;;;;;;4406111;32;20054;-61
2023/11/01 06:05:03;;;;;;;0.22;0.22;;;8.30;99.90;;;;;;4404404;32;20078;-63
2023/11/01 06:07:30;;;;;;;0.30;0.30;;;8.30;99.90;;;;;;4402579;32;20070;-58
2023/11/01 06:09:55;;;;;;;0.40;0.40;;;8.30;99.90;;;;;;4403383;32;20090;-62
2023/11/01 06:12:20;;;;;;;0.30;0.30;;;8.30;99.90;;;;;;4405953;32;20076;-62
2023/11/01 06:14:46;;;;;;;0.20;0.20;;;8.30;99.90;;;;;;4405913;32;20615;-61
2023/11/01 06:17:11;;;;;;;0.60;0.47;;;8.40;99.90;;;;;;4400939;32;20082;-62
2023/11/01 06:19:38;;;;;;;0.22;0.22;;;8.40;99.90;;;;;;4405449;32;20077;-62
2023/11/01 06:22:04;;;;;;;0.30;0.30;;;8.40;99.90;;;;;;4404024;32;20144;-59
2023/11/01 06:24:32;;;;;;;0.30;0.30;;;8.40;99.90;;;;;;4405125;32;20082;-60
2023/11/01 06:26:59;;;;;;;0.20;0.20;;;8.40;99.90;;;;;;4393044;32;20101;-61
2023/11/01 06:29:25;;;;;;;0.30;0.30;;;8.40;99.90;;;;;;4403884;32;20069;-61
2023/11/01 06:31:50;;;;;;;0.30;0.30;;;8.40;99.90;;;;;;4407463;32;20074;-62
2023/11/01 06:34:16;;;;;;;0.20;0.20;;;8.40;99.90;;;;;;4404708;32;20061;-61
2023/11/01 06:36:44;;;;;;;0.20;0.20;;;8.50;99.90;;;;;;4402288;32;20147;-59
2023/11/01 06:39:10;;;;;;;0.20;0.20;;;8.50;99.90;;;;;;4387407;32;21157;-62
2023/11/01 06:41:36;;;;;;;0.20;0.20;;;8.50;99.90;;;;;;4406778;32;20546;-61
2023/11/01 06:44:01;;;;;;;0.30;0.30;;;8.50;99.90;;;;;;4407358;32;20480;-61
2023/11/01 06:46:28;;;;;;;0.20;0.20;;;8.50;99.90;;;;;;4404678;32;20073;-62
2023/11/01 06:48:53;;;;;;;0.30;0.30;;;8.50;99.90;;;;;;4402407;32;20819;-61
2023/11/01 06:51:19;;;;;;;0.30;0.30;;;8.50;99.90;;;;;;4406632;32;20086;-61
2023/11/01 06:53:45;;;;;;;0.40;0.40;;;8.60;99.90;;;;;;4404994;32;20109;-61
2023/11/01 06:56:11;;;;;;;0.20;0.20;;;8.60;99.90;;;;;;4402934;32;20090;-63
2023/11/01 06:58:36;;;;;;;0.37;0.28;;;8.60;99.90;;;;;;4399276;32;20081;-62
2023/11/01 07:01:02;;;;;;;0.40;0.40;;;8.60;99.90;;;;;;4403105;32;20065;-61
2023/11/01 07:03:27;;;;;;;0.30;0.30;;;8.60;99.90;;;;;;4408528;32;20070;-61
2023/11/01 07:05:53;;;;;;;0.30;0.30;;;8.60;99.90;;;;;;4405323;32;20078;-62
2023/11/01 07:08:18;;;;;;;0.47;0.47;;;8.70;99.90;;;;;;4403231;32;20144;-60
2023/11/01 07:10:43;;;;;;;0.30;0.30;;;8.70;99.90;;;;;;4405292;32;20510;-61
2023/11/01 07:13:09;;;;;;;0.30;0.30;;;8.80;99.90;;;;;;4404766;32;20090;-61
2023/11/01 07:15:34;;;;;;;0.30;0.30;;;8.80;99.90;;;;;;4406032;32;20070;-62
2023/11/01 07:18:00;;;;;;;1.23;1.05;;;8.80;99.90;;;;;;4400067;32;20116;-62
2023/11/01 07:20:25;;;;;;;0.22;0.22;;;8.80;99.90;;;;;;4406625;32;20081;-61
2023/11/01 07:22:51;;;;;;;0.65;0.65;;;8.80;99.90;;;;;;4406310;32;20102;-61
2023/11/01 07:25:16;;;;;;;0.20;0.20;;;8.70;99.90;;;;;;4406521;32;20061;-61
2023/11/01 07:27:42;;;;;;;0.85;0.55;;;8.70;99.90;;;;;;4402484;32;20463;-62
2023/11/01 07:30:08;;;;;;;0.32;0.32;;;8.80;99.90;;;;;;4405634;32;20094;-61
2023/11/01 07:32:33;;;;;;;0.30;0.30;;;8.70;99.90;;;;;;4403110;32;20066;-62
2023/11/01 07:34:58;;;;;;;0.40;0.40;;;8.70;99.90;;;;;;4409821;32;20089;-61
2023/11/01 07:37:24;;;;;;;0.40;0.40;;;8.70;99.90;;;;;;4398423;32;20416;-63
2023/11/01 07:39:50;;;;;;;0.45;0.45;;;8.70;99.90;;;;;;4403585;32;20390;-63
2023/11/01 07:42:16;;;;;;;0.50;0.50;;;8.70;99.90;;;;;;4392332;32;20133;-60
2023/11/01 07:44:41;;;;;;;0.30;0.30;;;8.80;99.90;;;;;;4404624;32;20101;-61
2023/11/01 07:47:07;;;;;;;0.20;0.20;;;8.80;99.90;;;;;;4405278;32;20409;-61
2023/11/01 07:49:32;;;;;;;0.30;0.30;;;9.00;99.90;;;;;;4408044;32;20482;-60
2023/11/01 07:51:58;;;;;;;0.20;0.20;;;9.00;99.90;;;;;;4403978;32;20078;-61
2023/11/01 07:54:23;;;;;;;0.30;0.30;;;9.10;99.90;;;;;;4404466;32;20069;-61
2023/11/01 07:56:49;;;;;;;0.30;0.30;;;9.20;99.90;;;;;;4400190;32;20093;-62
2023/11/01 07:59:14;;;;;;;1.48;0.57;;;9.30;99.90;;;;;;4401998;32;20526;-60
2023/11/01 08:01:41;;;;;;;2.95;0.85;;;9.30;99.90;;;;;;4403477;32;20077;-60
2023/11/01 08:04:07;;;;;;;0.20;0.20;;;9.30;99.90;;;;;;4404440;32;20860;-60
2023/11/01 08:06:33;;;;;;;0.20;0.20;;;9.40;99.90;;;;;;4406185;32;20474;-61
2023/11/01 08:08:58;;;;;;;0.20;0.20;;;9.40;99.90;;;;;;4392781;32;20109;-61
2023/11/01 08:11:24;;;;;;;0.20;0.20;;;9.50;99.90;;;;;;4406652;32;20078;-61
2023/11/01 08:13:49;;;;;;;0.20;0.20;;;9.50;99.90;;;;;;4405427;32;20058;-61
2023/11/01 08:16:15;;;;;;;0.40;0.40;;;9.60;99.90;;;;;;4405480;32;20073;-61
2023/11/01 08:18:40;;;;;;;3.83;0.50;;;9.70;99.90;;;;;;4400619;32;20436;-61
2023/11/01 08:21:06;;;;;;;0.20;0.20;;;9.70;99.90;;;;;;4405752;32;20424;-61
2023/11/01 08:23:31;;;;;;;0.93;0.90;;;9.90;99.90;;;;;;4407832;32;20061;-60
2023/11/01 08:25:57;;;;;;;0.25;0.25;;;9.90;99.90;;;;;;4406204;32;20097;-60
2023/11/01 08:28:22;;;;;;;0.35;0.35;;;9.90;99.90;;;;;;4403230;32;20065;-61
2023/11/01 08:30:48;;;;;;;0.20;0.20;;;9.90;99.90;;;;;;4406815;32;20074;-61
2023/11/01 08:33:14;;;;;;;0.30;0.30;;;9.90;99.90;;;;;;4404930;32;20069;-60
2023/11/01 08:35:39;;;;;;;0.43;0.43;;;10.00;99.90;;;;;;4402331;32;20148;-60
2023/11/01 08:38:08;;;;;;;0.55;0.40;;;10.00;99.90;;;;;;4397132;32;20078;-60
2023/11/01 08:40:34;;;;;;;0.40;0.40;;;10.00;99.90;;;;;;4403403;32;20185;-61
2023/11/01 08:43:00;;;;;;;0.28;0.28;;;10.10;99.90;;;;;;4399993;32;20488;-61
2023/11/01 08:45:25;;;;;;;0.20;0.20;;;10.20;99.90;;;;;;4400767;32;20070;-60
2023/11/01 08:47:51;;;;;;;5.22;0.95;;;10.30;99.90;;;;;;4404691;32;20074;-60
2023/11/01 08:50:16;;;;;;;0.35;0.35;;;10.40;99.90;;;;;;4403200;32;20070;-61
2023/11/01 08:52:43;;;;;;;0.30;0.30;;;10.40;99.90;;;;;;4403266;32;20073;-61
2023/11/01 08:55:12;;;;;;;0.30;0.30;;;10.40;99.90;;;;;;4403563;32;20493;-60
2023/11/01 08:57:38;;;;;;;0.40;0.40;;;10.60;99.90;;;;;;4400877;32;20522;-62
2023/11/01 09:00:05;;;;;;;1.05;0.95;;;10.70;99.90;;;;;;4404875;32;20078;-61
2023/11/01 09:02:31;;;;;;;0.25;0.25;;;10.80;99.90;;;;;;4407570;32;20444;-60
2023/11/01 09:04:57;;;;;;;0.22;0.22;;;10.90;99.90;;;;;;4391181;32;20069;-60
2023/11/01 09:07:22;;;;;;;0.28;0.28;;;10.90;99.90;;;;;;4405827;32;20074;-61
2023/11/01 09:09:49;;;;;;;0.30;0.30;;;11.00;99.90;;;;;;4391730;32;20094;-60
2023/11/01 09:12:15;;;;;;;0.30;0.30;;;11.20;99.90;;;;;;4407017;32;20085;-59
2023/11/01 09:14:41;;;;;;;3.12;0.73;;;11.20;99.90;;;;;;4402576;32;20086;-62
2023/11/01 09:17:07;;;;;;;0.30;0.30;;;11.30;99.90;;;;;;4401361;32;20058;-61
2023/11/01 09:19:33;;;;;;;1.05;1.00;;;11.50;99.90;;;;;;4401981;32;20066;-60
2023/11/01 09:21:58;;;;;;;1.55;0.98;;;11.60;99.90;;;;;;4405008;32;20094;-62
2023/11/01 09:24:24;;;;;;;1.05;0.95;;;11.70;99.90;;;;;;4407979;32;20131;-61
2023/11/01 09:26:49;;;;;;;0.45;0.45;;;11.80;99.90;;;;;;4403717;32;20521;-61
2023/11/01 09:29:15;;;;;;;0.30;0.30;;;11.90;99.90;;;;;;4402623;32;20093;-61
2023/11/01 09:31:41;;;;;;;0.40;0.40;;;12.10;99.90;;;;;;4401348;32;20101;-61
2023/11/01 09:34:07;;;;;;;0.35;0.35;;;12.30;99.90;;;;;;4404497;32;20485;-63
2023/11/01 09:36:34;;;;;;;0.20;0.20;;;12.40;99.90;;;;;;4400105;32;20070;-62
2023/11/01 09:39:00;;;;;;;0.28;0.28;;;12.50;99.90;;;;;;4399949;32;20451;-62
2023/11/01 09:41:28;;;;;;;2.28;0.60;;;12.50;99.90;;;;;;4406091;32;20065;-63
2023/11/01 09:43:56;;;;;;;0.32;0.32;;;12.50;99.90;;;;;;4403904;32;20535;-62
2023/11/01 09:46:22;;;;;;;0.50;0.50;;;12.60;99.90;;;;;;4403795;32;20534;-63
2023/11/01 09:48:49;;;;;;;5.85;1.02;;;12.70;99.90;;;;;;4404121;32;20463;-62
2023/11/01 09:51:16;;;;;;;0.22;0.22;;;12.60;99.90;;;;;;4406866;32;20065;-63
2023/11/01 09:53:42;;;;;;;0.30;0.30;;;12.60;99.90;;;;;;4402791;32;20123;-63
2023/11/01 09:56:08;;;;;;;0.20;0.20;;;12.70;99.90;;;;;;4403374;32;20069;-62
2023/11/01 09:58:34;;;;;;;0.40;0.40;;;12.80;99.90;;;;;;4400202;32;20426;-62
2023/11/01 10:01:00;;;;;;;1.25;0.95;;;12.90;99.90;;;;;;4402870;32;20082;-62
2023/11/01 10:03:25;;;;;;;0.50;0.43;;;12.90;99.90;;;;;;4401306;32;20616;-63
2023/11/01 10:05:51;;;;;;;0.32;0.32;;;12.90;99.90;;;;;;4408589;32;20098;-62
2023/11/01 10:08:16;;;;;;;0.30;0.30;;;12.90;99.90;;;;;;4402570;32;20082;-63
2023/11/01 10:10:41;;;;;;;0.20;0.20;;;12.80;99.90;;;;;;4390896;32;20091;-62
2023/11/01 10:13:08;;;;;;;0.47;0.47;;;12.80;99.90;;;;;;4407498;32;20130;-62
2023/11/01 10:15:34;;;;;;;0.43;0.43;;;12.90;99.90;;;;;;4406821;32;20302;-62
2023/11/01 10:17:59;;;;;;;2.05;0.50;;;13.00;99.90;;;;;;4388289;32;20430;-63
2023/11/01 10:20:27;;;;;;;0.40;0.40;;;13.10;99.90;;;;;;4409251;32;20331;-63
2023/11/01 10:22:53;;;;;;;0.47;0.47;;;13.20;99.90;;;;;;4403781;32;20081;-63
2023/11/01 10:25:19;;;;;;;0.40;0.40;;;13.30;99.90;;;;;;4409457;32;20498;-62
2023/11/01 10:27:46;;;;;;;0.75;0.60;;;13.30;99.90;;;;;;4404486;32;20081;-62
2023/11/01 10:30:13;;;;;;;0.40;0.40;;;13.30;99.90;;;;;;4407888;32;20525;-63
2023/11/01 10:32:39;;;;;;;0.52;0.52;;;13.30;99.90;;;;;;4408069;32;20066;-63
2023/11/01 10:35:12;;;;;;;0.40;0.40;;;13.40;99.90;;;;;;4406995;32;20617;-62
2023/11/01 10:37:38;;;;;;;0.40;0.40;;;13.40;99.90;;;;;;4399838;32;20444;-62
2023/11/01 10:40:06;;;;;;;0.40;0.40;;;13.50;99.90;;;;;;4402098;32;20085;-63
2023/11/01 10:42:38;;;;;;;0.60;0.60;;;13.70;99.90;;;;;;4407576;32;20105;-63
2023/11/01 10:45:03;;;;;;;0.52;0.52;;;13.70;99.90;;;;;;4403935;32;20081;-62
2023/11/01 10:47:30;;;;;;;0.30;0.30;;;13.70;99.90;;;;;;4405931;32;20094;-63
2023/11/01 10:49:56;;;;;;;0.70;0.70;;;13.70;99.90;;;;;;4404299;32;20077;-63
2023/11/01 10:52:25;;;;;;;0.20;0.20;;;13.70;99.90;;;;;;4409395;32;20069;-62
2023/11/01 10:54:51;;;;;;;0.35;0.35;;;13.70;99.90;;;;;;4406511;32;20077;-62
2023/11/01 10:57:18;;;;;;;0.43;0.43;;;13.90;99.90;;;;;;4399125;32;20204;-63
2023/11/01 10:59:51;;;;;;;0.28;0.28;;;14.00;99.90;;;;;;4404964;32;20517;-63
2023/11/01 11:02:23;;;;;;;0.30;0.30;;;14.10;99.90;;;;;;4407423;32;20077;-62
2023/11/01 11:04:55;;;;;;;0.40;0.40;;;14.10;99.90;;;;;;4400229;32;20399;-62
2023/11/01 11:07:50;;;;;;;0.50;0.50;;;14.00;99.90;;;;;;4404826;32;20589;-62
2023/11/01 11:10:32;;;;;;;9.52;1.27;;;14.00;99.90;;;;;;4402505;32;20117;-62
2023/11/01 11:13:17;;;;;;;0.50;0.50;;;14.00;99.90;;;;;;4405481;32;20124;-62
2023/11/01 11:15:56;;;;;;;0.70;0.68;;;14.00;99.90;;;;;;4408319;32;20479;-62
2023/11/01 11:18:24;;;;;;;0.40;0.40;;;14.00;99.90;;;;;;4401615;32;20078;-62
2023/11/01 11:20:52;;;;;;;5.28;1.20;;;14.10;99.90;;;;;;4404483;32;20140;-62
2023/11/01 11:23:21;;;;;;;0.32;0.32;;;14.20;99.90;;;;;;4403542;32;20077;-62
2023/11/01 11:25:49;;;;;;;1.15;0.98;;;14.30;99.90;;;;;;4404746;32;20065;-62
2023/11/01 11:28:21;;;;;;;0.40;0.40;;;14.30;99.90;;;;;;4391347;32;20074;-61
2023/11/01 11:31:05;;;;;;;0.85;0.85;;;14.50;99.90;;;;;;4404689;32;20096;-62
2023/11/01 11:33:33;;;;;;;0.40;0.40;;;14.60;99.90;;;;;;4391739;32;20616;-61
2023/11/01 11:36:11;;;;;;;0.73;0.70;;;14.90;99.90;;;;;;4404178;32;20485;-62
2023/11/01 11:38:46;;;;;;;7.87;0.90;;;15.10;99.90;;;;;;4400088;32;20767;-61
2023/11/01 11:41:13;;;;;;;4.07;0.98;;;15.30;99.90;;;;;;4404960;32;20081;-62
2023/11/01 11:43:59;;;;;;;0.50;0.50;;;15.50;99.90;;;;;;4404872;32;20081;-62
2023/11/01 11:46:34;;;;;;;0.88;0.85;;;15.80;99.90;;;;;;4403758;32;21409;-62
2023/11/01 11:49:02;;;;;;;0.50;0.50;;;16.20;99.90;;;;;;4384536;32;92094;-62
2023/11/01 11:51:29;;;;;;;0.82;0.75;;;16.40;99.90;;;;;;4389969;32;20098;-62
2023/11/01 11:53:55;;;;;;;0.60;0.60;;;16.60;99.90;;;;;;4391295;32;20549;-62
2023/11/01 11:56:21;;;;;;;1.75;0.75;;;16.40;99.90;;;;;;4402051;32;20201;-62
2023/11/01 11:58:46;;;;;;;1.83;1.05;;;16.00;99.90;;;;;;4399442;32;20144;-62
2023/11/01 12:01:28;;;;;;;0.40;0.40;;;15.70;99.90;;;;;;4405452;32;20137;-61
2023/11/01 12:03:58;;;;;;;0.50;0.50;;;15.50;99.90;;;;;;4406430;32;20517;-61
2023/11/01 12:06:24;;;;;;;0.60;0.57;;;15.50;99.90;;;;;;4407260;32;20165;-61
2023/11/01 12:08:50;;;;;;;0.50;0.50;;;15.70;99.90;;;;;;4401010;32;20557;-61
2023/11/01 12:11:16;;;;;;;1.95;0.60;;;15.70;99.90;;;;;;4402370;32;20867;-61
2023/11/01 12:13:44;;;;;;;0.60;0.60;;;15.50;99.90;;;;;;4408184;32;20070;-62
2023/11/01 12:16:22;;;;;;;0.60;0.60;;;15.40;99.90;;;;;;4402882;32;20085;-62
2023/11/01 12:19:21;;;;;;;2.35;0.95;;;15.20;99.90;;;;;;4401303;32;20062;-61
2023/11/01 12:21:55;;;;;;;0.40;0.40;;;15.20;99.90;;;;;;4405342;32;20097;-62
2023/11/01 12:24:27;;;;;;;0.40;0.40;;;15.00;99.90;;;;;;4403218;32;20053;-62
2023/11/01 12:27:13;;;;;;;1.85;0.50;;;14.90;99.90;;;;;;4404583;32;20589;-62
2023/11/01 12:29:42;;;;;;;0.45;0.45;;;14.90;99.90;;;;;;4398188;32;20098;-63
2023/11/01 12:32:10;;;;;;;0.50;0.50;;;14.90;99.90;;;;;;4401569;32;20046;-63
2023/11/01 12:34:39;;;;;;;0.73;0.73;;;14.90;99.90;;;;;;4402009;32;20054;-62
2023/11/01 12:37:09;;;;;;;0.62;0.62;;;14.90;99.90;;;;;;4396005;32;20723;-62
2023/11/01 12:39:34;;;;;;;1.15;1.15;;;14.90;99.90;;;;;;4401531;32;20553;-63
2023/11/01 12:42:21;;;;;;;0.60;0.60;;;14.90;99.90;;;;;;4405615;32;20077;-62
2023/11/01 12:44:48;;;;;;;0.50;0.50;;;15.00;99.90;;;;;;4397911;32;20655;-63
2023/11/01 12:47:14;;;;;;;0.50;0.50;;;14.90;99.90;;;;;;4404346;32;20514;-62
2023/11/01 12:49:40;;;;;;;0.60;0.60;;;14.90;99.90;;;;;;4404437;32;20090;-62
2023/11/01 12:52:07;;;;;;;0.40;0.40;;;14.80;99.90;;;;;;4403079;32;20521;-62
2023/11/01 12:54:32;;;;;;;0.57;0.57;;;14.80;99.90;;;;;;4406432;32;20116;-62
2023/11/01 12:56:59;;;;;;;0.40;0.40;;;14.90;99.90;;;;;;4398397;32;20090;-62